sensor_id;sensor_type;location;lat;lon;timestamp;P1;durP1;ratioP1;P2;durP2;ratioP2
28509;SDS011;15723;55.684;37.928;2023-04-06T02:47:18;13.00;;;7.90;;
28509;SDS011;15723;55.684;37.928;2023-04-06T02:49:48;11.93;;;7.95;;
28509;SDS011;15723;55.684;37.928;2023-04-06T02:52:15;24.58;;;8.90;;
28509;SDS011;15723;55.684;37.928;2023-04-06T05:03:40;8.13;;;4.60;;
28509;SDS011;15723;55.684;37.928;2023-04-06T05:06:11;15.85;;;5.38;;
28509;SDS011;15723;55.684;37.928;2023-04-06T05:08:40;7.40;;;4.82;;
28509;SDS011;15723;55.684;37.928;2023-04-06T06:13:37;6.60;;;4.00;;
28509;SDS011;15723;55.684;37.928;2023-04-06T06:16:04;7.80;;;4.00;;
28509;SDS011;15723;55.684;37.928;2023-04-06T06:18:33;5.80;;;3.80;;
28509;SDS011;15723;55.684;37.928;2023-04-06T06:23:26;12.30;;;4.10;;
28509;SDS011;15723;55.684;37.928;2023-04-06T06:28:21;11.57;;;3.50;;
28509;SDS011;15723;55.684;37.928;2023-04-06T06:30:48;11.65;;;4.20;;
28509;SDS011;15723;55.684;37.928;2023-04-06T06:33:19;18.90;;;4.13;;
28509;SDS011;15723;55.684;37.928;2023-04-06T06:35:45;6.87;;;3.50;;
28509;SDS011;15723;55.684;37.928;2023-04-06T06:38:11;13.63;;;3.83;;
28509;SDS011;15723;55.684;37.928;2023-04-06T06:40:37;7.28;;;3.55;;
28509;SDS011;15723;55.684;37.928;2023-04-06T06:43:05;5.78;;;3.50;;
28509;SDS011;15723;55.684;37.928;2023-04-06T06:45:45;8.10;;;3.58;;
28509;SDS011;15723;55.684;37.928;2023-04-06T06:48:12;10.98;;;3.72;;
28509;SDS011;15723;55.684;37.928;2023-04-06T06:50:39;12.30;;;4.60;;
28509;SDS011;15723;55.684;37.928;2023-04-06T06:53:05;10.60;;;3.55;;
28509;SDS011;15723;55.684;37.928;2023-04-06T06:55:33;9.40;;;3.45;;
28509;SDS011;15723;55.684;37.928;2023-04-06T06:57:59;15.02;;;4.97;;
28509;SDS011;15723;55.684;37.928;2023-04-06T07:00:25;11.43;;;3.95;;
28509;SDS011;15723;55.684;37.928;2023-04-06T07:02:52;13.38;;;3.38;;
28509;SDS011;15723;55.684;37.928;2023-04-06T07:05:18;12.40;;;3.55;;
28509;SDS011;15723;55.684;37.928;2023-04-06T07:07:44;14.43;;;3.97;;
28509;SDS011;15723;55.684;37.928;2023-04-06T07:10:11;7.43;;;2.97;;
28509;SDS011;15723;55.684;37.928;2023-04-06T07:12:38;9.55;;;3.08;;
28509;SDS011;15723;55.684;37.928;2023-04-06T07:15:05;7.47;;;3.20;;
28509;SDS011;15723;55.684;37.928;2023-04-06T07:17:32;10.68;;;4.05;;
28509;SDS011;15723;55.684;37.928;2023-04-06T07:19:59;9.95;;;4.05;;
28509;SDS011;15723;55.684;37.928;2023-04-06T07:22:25;12.57;;;3.85;;
28509;SDS011;15723;55.684;37.928;2023-04-06T07:24:52;6.20;;;3.22;;
28509;SDS011;15723;55.684;37.928;2023-04-06T07:27:18;10.20;;;3.65;;
28509;SDS011;15723;55.684;37.928;2023-04-06T07:29:44;7.38;;;3.40;;
28509;SDS011;15723;55.684;37.928;2023-04-06T07:32:11;17.52;;;3.95;;
28509;SDS011;15723;55.684;37.928;2023-04-06T07:34:37;15.73;;;3.88;;
28509;SDS011;15723;55.684;37.928;2023-04-06T07:37:03;11.32;;;3.40;;
28509;SDS011;15723;55.684;37.928;2023-04-06T07:39:31;11.32;;;3.50;;
28509;SDS011;15723;55.684;37.928;2023-04-06T07:41:57;8.70;;;3.72;;
28509;SDS011;15723;55.684;37.928;2023-04-06T07:44:24;12.60;;;4.13;;
28509;SDS011;15723;55.684;37.928;2023-04-06T07:46:50;6.53;;;3.50;;
28509;SDS011;15723;55.684;37.928;2023-04-06T07:49:18;18.65;;;4.43;;
28509;SDS011;15723;55.684;37.928;2023-04-06T07:51:46;11.07;;;3.13;;
28509;SDS011;15723;55.684;37.928;2023-04-06T07:54:12;16.33;;;3.28;;
28509;SDS011;15723;55.684;37.928;2023-04-06T07:56:38;9.35;;;3.13;;
28509;SDS011;15723;55.684;37.928;2023-04-06T07:59:05;5.38;;;3.20;;
28509;SDS011;15723;55.684;37.928;2023-04-06T08:01:31;13.88;;;3.47;;
28509;SDS011;15723;55.684;37.928;2023-04-06T08:03:57;8.43;;;3.30;;
28509;SDS011;15723;55.684;37.928;2023-04-06T08:06:24;9.50;;;3.60;;
28509;SDS011;15723;55.684;37.928;2023-04-06T08:08:50;18.88;;;3.97;;
28509;SDS011;15723;55.684;37.928;2023-04-06T08:11:16;11.45;;;3.40;;
28509;SDS011;15723;55.684;37.928;2023-04-06T08:13:43;12.88;;;3.55;;
28509;SDS011;15723;55.684;37.928;2023-04-06T08:16:09;11.48;;;3.55;;
28509;SDS011;15723;55.684;37.928;2023-04-06T08:18:35;14.30;;;3.58;;
28509;SDS011;15723;55.684;37.928;2023-04-06T08:21:01;13.10;;;3.13;;
28509;SDS011;15723;55.684;37.928;2023-04-06T08:23:27;54.13;;;5.30;;
28509;SDS011;15723;55.684;37.928;2023-04-06T08:25:54;10.13;;;3.53;;
28509;SDS011;15723;55.684;37.928;2023-04-06T08:28:20;34.28;;;4.90;;
28509;SDS011;15723;55.684;37.928;2023-04-06T08:30:46;19.98;;;3.42;;
28509;SDS011;15723;55.684;37.928;2023-04-06T08:33:13;10.27;;;3.03;;
28509;SDS011;15723;55.684;37.928;2023-04-06T08:35:39;15.40;;;3.85;;
28509;SDS011;15723;55.684;37.928;2023-04-06T08:38:06;26.57;;;5.47;;
28509;SDS011;15723;55.684;37.928;2023-04-06T09:07:39;10.20;;;3.20;;
28509;SDS011;15723;55.684;37.928;2023-04-06T09:10:06;7.45;;;3.35;;
28509;SDS011;15723;55.684;37.928;2023-04-06T09:12:33;9.07;;;3.33;;
28509;SDS011;15723;55.684;37.928;2023-04-06T09:15:00;8.90;;;3.50;;
28509;SDS011;15723;55.684;37.928;2023-04-06T09:17:29;13.30;;;3.78;;
28509;SDS011;15723;55.684;37.928;2023-04-06T09:20:01;11.85;;;3.50;;
28509;SDS011;15723;55.684;37.928;2023-04-06T10:50:25;8.80;;;2.30;;
28509;SDS011;15723;55.684;37.928;2023-04-06T11:24:49;13.70;;;2.80;;
28509;SDS011;15723;55.684;37.928;2023-04-06T11:27:15;10.65;;;2.65;;
28509;SDS011;15723;55.684;37.928;2023-04-06T11:29:42;14.20;;;3.30;;
28509;SDS011;15723;55.684;37.928;2023-04-06T11:32:11;9.60;;;2.60;;
28509;SDS011;15723;55.684;37.928;2023-04-06T11:34:46;18.35;;;3.25;;
28509;SDS011;15723;55.684;37.928;2023-04-06T11:42:21;9.60;;;3.20;;
28509;SDS011;15723;55.684;37.928;2023-04-06T12:06:53;31.30;;;4.30;;
28509;SDS011;15723;55.684;37.928;2023-04-06T13:44:54;9.73;;;2.80;;
28509;SDS011;15723;55.684;37.928;2023-04-06T13:47:20;18.45;;;2.80;;
28509;SDS011;15723;55.684;37.928;2023-04-06T17:47:52;3.08;;;1.70;;
28509;SDS011;15723;55.684;37.928;2023-04-06T17:50:18;4.75;;;1.92;;
28509;SDS011;15723;55.684;37.928;2023-04-06T17:52:44;4.63;;;1.70;;
28509;SDS011;15723;55.684;37.928;2023-04-06T17:55:11;3.33;;;1.63;;
28509;SDS011;15723;55.684;37.928;2023-04-06T17:57:38;3.85;;;2.05;;
28509;SDS011;15723;55.684;37.928;2023-04-06T18:00:05;4.93;;;1.70;;
28509;SDS011;15723;55.684;37.928;2023-04-06T18:02:32;13.45;;;2.63;;
28509;SDS011;15723;55.684;37.928;2023-04-06T18:04:59;10.48;;;2.05;;
28509;SDS011;15723;55.684;37.928;2023-04-06T18:07:25;14.73;;;2.55;;
28509;SDS011;15723;55.684;37.928;2023-04-06T18:09:51;8.93;;;3.17;;
28509;SDS011;15723;55.684;37.928;2023-04-06T18:12:17;6.57;;;2.30;;
28509;SDS011;15723;55.684;37.928;2023-04-06T18:14:44;20.10;;;3.35;;
28509;SDS011;15723;55.684;37.928;2023-04-06T18:17:10;11.10;;;3.30;;
28509;SDS011;15723;55.684;37.928;2023-04-06T18:19:37;16.83;;;4.00;;
28509;SDS011;15723;55.684;37.928;2023-04-06T18:22:03;7.32;;;3.45;;
28509;SDS011;15723;55.684;37.928;2023-04-06T18:24:29;13.88;;;3.65;;
28509;SDS011;15723;55.684;37.928;2023-04-06T18:26:55;18.92;;;3.17;;
28509;SDS011;15723;55.684;37.928;2023-04-06T18:29:22;9.30;;;2.95;;
28509;SDS011;15723;55.684;37.928;2023-04-06T18:31:48;15.52;;;3.78;;
28509;SDS011;15723;55.684;37.928;2023-04-06T18:34:20;12.38;;;3.85;;
28509;SDS011;15723;55.684;37.928;2023-04-06T18:36:48;21.30;;;4.65;;
28509;SDS011;15723;55.684;37.928;2023-04-06T18:39:14;23.08;;;4.53;;
28509;SDS011;15723;55.684;37.928;2023-04-06T18:41:41;11.85;;;2.75;;
28509;SDS011;15723;55.684;37.928;2023-04-06T18:44:07;9.38;;;3.15;;
28509;SDS011;15723;55.684;37.928;2023-04-06T18:46:33;28.60;;;5.43;;
28509;SDS011;15723;55.684;37.928;2023-04-06T18:49:00;11.77;;;3.30;;
28509;SDS011;15723;55.684;37.928;2023-04-06T18:51:29;9.07;;;2.75;;
28509;SDS011;15723;55.684;37.928;2023-04-06T18:53:56;6.63;;;2.22;;
28509;SDS011;15723;55.684;37.928;2023-04-06T18:56:22;9.35;;;2.22;;
28509;SDS011;15723;55.684;37.928;2023-04-06T18:58:48;5.57;;;1.80;;
28509;SDS011;15723;55.684;37.928;2023-04-06T19:01:25;9.23;;;1.90;;
28509;SDS011;15723;55.684;37.928;2023-04-06T19:03:53;5.70;;;1.98;;
28509;SDS011;15723;55.684;37.928;2023-04-06T19:06:20;5.55;;;1.90;;
28509;SDS011;15723;55.684;37.928;2023-04-06T19:08:47;5.55;;;2.20;;
28509;SDS011;15723;55.684;37.928;2023-04-06T19:11:14;8.63;;;2.38;;
28509;SDS011;15723;55.684;37.928;2023-04-06T19:13:41;8.85;;;2.05;;
28509;SDS011;15723;55.684;37.928;2023-04-06T19:16:14;13.80;;;2.85;;
28509;SDS011;15723;55.684;37.928;2023-04-06T19:18:41;12.05;;;3.30;;
28509;SDS011;15723;55.684;37.928;2023-04-06T19:21:17;5.72;;;2.22;;
28509;SDS011;15723;55.684;37.928;2023-04-06T19:23:45;7.15;;;2.10;;
28509;SDS011;15723;55.684;37.928;2023-04-06T19:26:13;7.40;;;2.65;;
28509;SDS011;15723;55.684;37.928;2023-04-06T19:28:41;3.80;;;2.50;;
28509;SDS011;15723;55.684;37.928;2023-04-06T19:31:09;10.90;;;2.72;;
28509;SDS011;15723;55.684;37.928;2023-04-06T19:33:37;7.35;;;2.83;;
28509;SDS011;15723;55.684;37.928;2023-04-06T19:36:05;5.28;;;2.03;;
28509;SDS011;15723;55.684;37.928;2023-04-06T19:38:32;9.82;;;3.25;;
28509;SDS011;15723;55.684;37.928;2023-04-06T19:40:59;23.48;;;3.05;;
28509;SDS011;15723;55.684;37.928;2023-04-06T19:43:26;7.78;;;2.60;;
28509;SDS011;15723;55.684;37.928;2023-04-06T19:45:53;11.65;;;2.78;;
28509;SDS011;15723;55.684;37.928;2023-04-06T20:39:40;9.65;;;2.60;;
28509;SDS011;15723;55.684;37.928;2023-04-06T20:42:06;6.45;;;2.42;;
28509;SDS011;15723;55.684;37.928;2023-04-06T20:44:33;6.57;;;1.98;;
